Terminal Aerodrome Forecast
Issued by NWS Cleveland, OH

Home | Current Version | Previous Version | Text Only | Print | Product List | Glossary Off
Versions: 1 2 3 4 5 6 7 8 9 10 11 12 13 14 15 16 17 18 19 20 21

620
FTUS41 KCLE 130548
TAFMFD
TAF
KMFD 130548Z 1306/1406 30005KT P6SM OVC040
     FM131400 24008KT P6SM SCT025 OVC035
     FM131800 18010KT P6SM VCSH SCT015 OVC025
     FM132200 17010KT 3SM -SN SCT005 OVC015
      TEMPO 1400/1404 1/2SM SN OVC005=

USA.gov is the U.S. government's official web portal to all federal, state and local government web resources and services.